San Jose, CA

12:03 AM PDT on September 03, 2014 (GMT -0700)
North San Jose / 680 & Hostetter | Change Station
CLOSE
Current Station
Personal Weather Station
Location: San Jose, CA
Elevation: 85 ft
Nearby Weather Stations

Elev 85 ft 37.39 °N, 121.88 °W | Updated 2 minutes ago

Partly Cloudy
Partly Cloudy
59.1 °F
Feels Like 59.1 °F
N
0.0
Wind Variable Wind from WSW
Gusts 0.0 mph

Today
High -- | Low -- °F
--% Chance of Precip.
Yesterday
High -- | Low -- °F
Precip. -- in
6:39 AM 7:33 PM
First Quarter, 59% visible
Pressure 29.79 in
Visibility 10.0 miles
Clouds Few 1000 ft
Dew Point 56 °F
Humidity 91%
Rainfall 0.00 in
Snow Depth Not available.
UV 0 out of 12
Pollen 7.30 out of 12
PM2.5 Good
Flu Activity Not available.
METAR KSJC 030653Z 00000KT 10SM FEW010 16/13 A2979 RMK AO2 SLP086 T01610133

More Conditions Fewer Conditions

Pressure 29.79 in
Visibility 10.0 miles
Clouds Few 1000 ft
Dew Point 56 °F
Humidity 91%
Rainfall 0.00 in
Snow Depth Not available.
UV 0 out of 12
Pollen 7.30 out of 12
PM2.5 Good
Flu Activity Not available.
METAR KSJC 030653Z 00000KT 10SM FEW010 16/13 A2979 RMK AO2 SLP086 T01610133

More Conditions Fewer Conditions

10-Day Weather Forecast

Almanac

Astronomy

Sep. 03, 2014 Rise Set
Actual Time 6:39 AM PDT 7:33 PM PDT
Civil Twilight 6:13 AM PDT 7:59 PM PDT
Nautical Twilight 5:41 AM PDT 8:31 PM PDT
Astronomical Twilight 5:08 AM PDT 9:03 PM PDT
Moon 3:16 PM PDT 12:42 AM PDT
Length of Visible Light 13h 46m
Length of Day
12h 53m
Tomorrow will be 2m 19s shorter.
First Quarter, 59% of the Moon is Illuminated
Today
First Quarter
Sep 8
Full
Sep 15
Last Quarter
Sep 24
New
Oct 1
First Quarter

Community

WunderPhotos

Upload Photos

1,749,888 photos uploaded!

Nearby

Air Quality

  Air Quality AQ Index Pollutant
Yesterday Good
OZONE
Yesterday Good
PM2.5
Current Good
PM2.5
Tuesday Good
OZONE
Wednesday Good
OZONE
Thursday Good
OZONE
Friday Good
OZONE
Saturday Good
OZONE
Sunday Good
OZONE

Snow Depth

Station Depth Elevation
Blue Lakes 0 in 8000 ft
Leavitt Lake 0 in 9400 ft
Echo Peak 0 in 7800 ft
Leavitt Meadows 0 in 7200 ft
Fallen Leaf 0 in 6300 ft

Earthquake Activity

City Distance Mag. Time & Date
Cobb, California 109 miles 2.5 12:00 PM PDT
2014-09-02
Yountville, California 72 miles 2.6 1:15 PM PDT
2014-09-01
Gilroy, California 36 miles 3.4 9:10 AM PDT
2014-09-01
Green Valley, California 61 miles 2.5 6:37 AM PDT
2014-08-31
Minimum magnitude displayed is 2.5.

Coastal Water Temperatures

Place Temperature
No Stations Reporting

Nearby Weather Stations